createdAt,value
2017-09-07T00:00:16.969Z,59.10
2017-09-07T00:02:45.373Z,59.60
2017-09-07T00:05:13.726Z,59.40
2017-09-07T00:07:42.013Z,60.00
2017-09-07T00:10:10.357Z,59.50
2017-09-07T00:12:38.686Z,59.40
2017-09-07T00:15:07.013Z,59.50
2017-09-07T00:17:35.365Z,59.70
2017-09-07T00:20:41.097Z,59.60
2017-09-07T00:23:09.458Z,59.80
2017-09-07T00:25:37.810Z,59.80
2017-09-07T00:28:06.186Z,60.10
2017-09-07T00:30:34.494Z,60.70
2017-09-07T00:33:02.814Z,60.80
2017-09-07T00:35:31.176Z,61.20
2017-09-07T00:37:59.513Z,61.50
2017-09-07T00:40:29.395Z,60.60
2017-09-07T00:42:57.733Z,61.30
2017-09-07T00:45:26.046Z,61.30
2017-09-07T00:47:54.378Z,61.70
2017-09-07T00:50:22.680Z,62.40
2017-09-07T00:52:52.012Z,61.30
2017-09-07T00:55:20.309Z,61.50
2017-09-07T00:57:48.644Z,61.20
2017-09-07T01:00:17.014Z,61.60
2017-09-07T01:02:45.361Z,61.70
2017-09-07T01:05:14.511Z,60.90
2017-09-07T01:07:42.849Z,61.60
2017-09-07T01:10:11.219Z,60.90
2017-09-07T01:12:39.554Z,61.30
2017-09-07T01:15:07.862Z,61.40
2017-09-07T01:17:36.214Z,61.70
2017-09-07T01:20:04.524Z,61.80
2017-09-07T01:22:32.822Z,62.10
2017-09-07T01:25:06.471Z,62.20
2017-09-07T01:27:34.777Z,62.50
2017-09-07T01:30:03.109Z,62.60
2017-09-07T01:32:31.422Z,62.50
2017-09-07T01:34:59.755Z,62.30
2017-09-07T01:37:28.853Z,62.50
2017-09-07T01:39:57.279Z,62.40
2017-09-07T01:42:25.610Z,62.80
2017-09-07T01:44:53.926Z,62.70
2017-09-07T01:47:22.265Z,62.50
2017-09-07T01:49:52.313Z,62.60
2017-09-07T01:52:21.236Z,62.50
2017-09-07T01:54:50.085Z,62.70
2017-09-07T01:57:18.380Z,63.30
2017-09-07T01:59:46.733Z,62.80
2017-09-07T02:02:15.036Z,63.10
2017-09-07T02:04:43.368Z,63.10
2017-09-07T02:07:11.707Z,63.30
2017-09-07T02:09:40.053Z,63.40
2017-09-07T02:12:08.353Z,63.90
2017-09-07T02:14:36.721Z,64.90
2017-09-07T02:17:05.042Z,64.00
2017-09-07T02:19:33.343Z,63.90
2017-09-07T02:22:01.684Z,63.80
2017-09-07T02:24:29.991Z,64.60
2017-09-07T02:26:58.302Z,64.70
2017-09-07T02:29:26.650Z,64.90
2017-09-07T02:31:55.338Z,65.30
2017-09-07T02:34:23.642Z,64.60
2017-09-07T02:36:51.976Z,65.60
2017-09-07T02:39:20.278Z,66.40
2017-09-07T02:41:48.602Z,66.60
2017-09-07T02:44:16.896Z,67.10
2017-09-07T02:46:45.237Z,67.50
2017-09-07T02:49:13.589Z,67.50
2017-09-07T02:51:41.942Z,66.80
2017-09-07T02:54:10.300Z,66.90
2017-09-07T02:56:38.599Z,67.40
2017-09-07T02:59:06.912Z,66.80
2017-09-07T03:01:35.228Z,66.20
2017-09-07T03:04:03.553Z,66.60
2017-09-07T03:06:31.867Z,66.80
2017-09-07T03:09:00.180Z,67.20
2017-09-07T03:11:28.536Z,67.40
2017-09-07T03:13:56.850Z,68.20
2017-09-07T03:16:25.177Z,68.40
2017-09-07T03:18:53.501Z,68.50
2017-09-07T03:21:21.800Z,69.50
2017-09-07T03:23:50.130Z,69.60
2017-09-07T03:26:18.502Z,69.50
2017-09-07T03:28:46.849Z,69.70
2017-09-07T03:31:15.171Z,69.50
2017-09-07T03:33:43.506Z,69.30
2017-09-07T03:36:11.829Z,69.30
2017-09-07T03:38:40.134Z,69.30
2017-09-07T03:41:08.464Z,69.50
2017-09-07T03:43:36.939Z,70.00
2017-09-07T03:46:05.275Z,69.90
2017-09-07T03:48:33.613Z,70.90
2017-09-07T03:51:01.928Z,70.80
2017-09-07T03:53:31.024Z,70.90
2017-09-07T03:55:59.361Z,70.90
2017-09-07T03:58:28.441Z,70.80
2017-09-07T04:00:56.742Z,70.60
2017-09-07T04:03:25.080Z,70.70
2017-09-07T04:05:53.381Z,71.30
2017-09-07T04:08:21.744Z,71.10
2017-09-07T04:10:50.094Z,71.20
2017-09-07T04:13:18.402Z,71.30
2017-09-07T04:15:46.816Z,71.30
2017-09-07T04:18:16.049Z,71.20
2017-09-07T04:20:44.909Z,71.40
2017-09-07T04:23:13.311Z,71.80
2017-09-07T04:25:41.774Z,71.20
2017-09-07T04:28:10.156Z,71.10
2017-09-07T04:30:38.453Z,71.10
2017-09-07T04:33:06.782Z,70.40
2017-09-07T04:35:35.138Z,70.50
2017-09-07T04:38:03.430Z,70.30
2017-09-07T04:40:31.760Z,70.60
2017-09-07T04:43:00.076Z,71.30
2017-09-07T04:45:28.393Z,71.00
2017-09-07T04:47:56.973Z,71.30
2017-09-07T04:50:25.289Z,72.00
2017-09-07T04:52:53.629Z,71.90
2017-09-07T04:55:21.979Z,72.00
2017-09-07T04:57:50.661Z,71.60
2017-09-07T05:00:18.953Z,71.60
2017-09-07T05:02:47.256Z,71.20
2017-09-07T05:05:15.592Z,71.40
2017-09-07T05:07:43.912Z,72.30
2017-09-07T05:10:12.204Z,72.30
2017-09-07T05:12:40.531Z,72.40
2017-09-07T05:15:08.862Z,72.50
2017-09-07T05:17:37.209Z,72.30
2017-09-07T05:20:05.557Z,72.80
2017-09-07T05:22:33.897Z,72.90
2017-09-07T05:25:02.210Z,73.20
2017-09-07T05:27:30.523Z,73.50
2017-09-07T05:29:58.837Z,73.60
2017-09-07T05:32:27.154Z,73.40
2017-09-07T05:34:55.469Z,73.10
2017-09-07T05:37:23.798Z,73.30
2017-09-07T05:39:52.157Z,74.30
2017-09-07T05:42:20.470Z,73.70
2017-09-07T05:44:48.867Z,73.40
2017-09-07T05:47:17.154Z,73.30
2017-09-07T05:49:45.451Z,72.90
2017-09-07T05:52:13.796Z,72.70
2017-09-07T05:54:42.123Z,73.10
2017-09-07T05:57:10.427Z,72.90
2017-09-07T05:59:39.565Z,73.70
2017-09-07T06:02:07.895Z,73.70
2017-09-07T06:04:36.191Z,73.40
2017-09-07T06:07:04.496Z,73.20
2017-09-07T06:09:32.826Z,72.70
2017-09-07T06:12:01.125Z,71.90
2017-09-07T06:14:29.463Z,71.30
2017-09-07T06:16:57.765Z,70.90
2017-09-07T06:19:26.098Z,70.70
2017-09-07T06:21:54.405Z,70.90
2017-09-07T06:24:22.796Z,70.40
2017-09-07T06:26:51.129Z,69.30
2017-09-07T06:29:19.433Z,69.30
2017-09-07T06:31:47.745Z,69.20
2017-09-07T06:34:16.049Z,69.70
2017-09-07T06:36:44.441Z,70.40
2017-09-07T06:39:12.773Z,70.80
2017-09-07T06:41:41.105Z,70.50
2017-09-07T06:44:09.466Z,70.20
2017-09-07T06:46:38.568Z,70.00
2017-09-07T06:49:07.390Z,69.90
2017-09-07T06:51:35.756Z,69.70
2017-09-07T06:54:04.872Z,68.80
2017-09-07T06:56:33.173Z,68.70
2017-09-07T06:59:01.501Z,67.90
2017-09-07T07:01:29.793Z,68.60
2017-09-07T07:03:58.240Z,67.90
2017-09-07T07:06:26.574Z,66.90
2017-09-07T07:08:54.884Z,66.80
2017-09-07T07:11:23.214Z,66.60
2017-09-07T07:13:51.565Z,65.30
2017-09-07T07:16:19.903Z,64.70
2017-09-07T07:18:48.218Z,64.50
2017-09-07T07:21:16.575Z,64.70
2017-09-07T07:23:44.908Z,64.90
2017-09-07T07:26:13.244Z,64.80
2017-09-07T07:28:41.574Z,64.20
2017-09-07T07:31:09.902Z,63.00
2017-09-07T07:33:38.241Z,62.70
2017-09-07T07:36:06.568Z,62.90
2017-09-07T07:38:34.887Z,62.60
2017-09-07T07:41:03.225Z,63.10
2017-09-07T07:43:31.526Z,63.30
2017-09-07T07:45:59.826Z,62.90
2017-09-07T07:48:28.154Z,61.90
2017-09-07T07:50:56.494Z,61.40
2017-09-07T07:53:24.803Z,61.80
2017-09-07T07:55:53.182Z,61.80
2017-09-07T07:58:21.490Z,61.10
2017-09-07T08:00:49.808Z,61.10
2017-09-07T08:03:18.126Z,61.30
2017-09-07T08:05:46.594Z,61.10
2017-09-07T08:08:14.920Z,61.20
2017-09-07T08:10:43.394Z,61.50
2017-09-07T08:13:11.712Z,60.80
2017-09-07T08:15:40.011Z,60.60
2017-09-07T08:18:09.131Z,59.60
2017-09-07T08:20:37.543Z,59.50
2017-09-07T08:23:06.206Z,60.30
2017-09-07T08:25:34.530Z,59.60
2017-09-07T08:28:02.872Z,58.80
2017-09-07T08:30:31.170Z,58.20
2017-09-07T08:32:59.471Z,57.00
2017-09-07T08:35:27.838Z,56.90
2017-09-07T08:37:56.146Z,56.20
2017-09-07T08:40:24.453Z,56.00
2017-09-07T08:42:52.799Z,55.00
2017-09-07T08:45:21.107Z,55.50
2017-09-07T08:47:49.448Z,54.80
2017-09-07T08:50:17.798Z,54.30
2017-09-07T08:52:46.144Z,53.00
2017-09-07T08:55:14.479Z,52.30
2017-09-07T08:57:42.809Z,49.60
2017-09-07T09:00:11.108Z,48.80
2017-09-07T09:02:39.433Z,47.90
2017-09-07T09:05:07.741Z,48.80
2017-09-07T09:07:36.066Z,47.70
2017-09-07T09:10:04.398Z,47.60
2017-09-07T09:12:32.743Z,44.20
2017-09-07T09:15:01.074Z,45.10
2017-09-07T09:17:29.402Z,44.10
2017-09-07T09:19:57.774Z,44.50
2017-09-07T09:22:26.114Z,45.00
2017-09-07T09:24:54.528Z,43.50
2017-09-07T09:27:22.848Z,40.80
2017-09-07T09:29:51.147Z,41.50
2017-09-07T09:32:19.514Z,39.00
2017-09-07T09:34:47.937Z,38.70
2017-09-07T09:37:16.262Z,39.80
2017-09-07T09:39:44.670Z,38.90
2017-09-07T09:42:12.999Z,39.30
2017-09-07T09:44:41.320Z,37.50
2017-09-07T09:47:10.416Z,38.20
2017-09-07T09:49:38.803Z,37.10
2017-09-07T09:52:07.334Z,35.40
2017-09-07T09:54:38.551Z,34.20
2017-09-07T09:57:07.119Z,35.00
2017-09-07T09:59:35.433Z,35.50
2017-09-07T10:02:03.754Z,36.30
2017-09-07T10:04:32.164Z,36.10
2017-09-07T10:07:00.514Z,36.30
2017-09-07T10:09:28.853Z,37.10
2017-09-07T10:11:58.148Z,37.70
2017-09-07T10:14:26.510Z,38.10
2017-09-07T10:16:54.884Z,37.10
2017-09-07T10:19:23.266Z,36.10
2017-09-07T10:21:51.649Z,35.80
2017-09-07T10:24:19.989Z,34.30
2017-09-07T10:26:48.313Z,34.60
2017-09-07T10:29:17.779Z,35.50
2017-09-07T10:31:46.115Z,35.90
2017-09-07T10:34:14.497Z,35.80
2017-09-07T10:36:42.842Z,35.70
2017-09-07T10:39:11.165Z,36.80
2017-09-07T10:41:40.417Z,37.20
2017-09-07T10:44:08.828Z,36.70
2017-09-07T10:46:38.492Z,37.00
2017-09-07T10:49:06.853Z,37.80
2017-09-07T10:51:35.301Z,36.40
2017-09-07T10:54:12.455Z,36.60
2017-09-07T10:56:40.816Z,37.80
2017-09-07T10:59:09.376Z,36.50
2017-09-07T11:01:38.541Z,35.80
2017-09-07T11:04:09.553Z,36.40
2017-09-07T11:06:39.003Z,36.20
2017-09-07T11:09:07.407Z,37.00
2017-09-07T11:11:35.744Z,37.50
2017-09-07T11:14:04.103Z,36.60
2017-09-07T11:16:33.040Z,37.80
2017-09-07T11:19:01.371Z,36.20
2017-09-07T11:21:29.694Z,36.20
2017-09-07T11:23:58.033Z,34.80
2017-09-07T11:26:26.332Z,33.30
2017-09-07T11:28:55.855Z,32.50
2017-09-07T11:31:24.225Z,32.40
2017-09-07T11:33:55.083Z,33.50
2017-09-07T11:36:23.476Z,33.00
2017-09-07T11:38:51.827Z,35.00
2017-09-07T11:41:20.828Z,34.40
2017-09-07T11:43:49.274Z,34.30
2017-09-07T11:46:18.428Z,34.40
2017-09-07T11:48:46.833Z,34.90
2017-09-07T11:51:15.316Z,34.30
2017-09-07T11:53:44.591Z,34.50
2017-09-07T11:56:12.916Z,34.40
2017-09-07T11:58:42.911Z,34.80
2017-09-07T12:01:12.614Z,33.10
2017-09-07T12:03:54.585Z,33.00
2017-09-07T12:06:23.952Z,33.60
2017-09-07T12:08:52.295Z,34.20
2017-09-07T12:11:20.657Z,34.00
2017-09-07T12:13:50.460Z,34.20
2017-09-07T12:16:20.101Z,34.20
2017-09-07T12:18:49.383Z,34.00
2017-09-07T12:21:17.697Z,35.30
2017-09-07T12:23:46.220Z,34.10
2017-09-07T12:26:16.736Z,34.80
2017-09-07T12:28:46.134Z,34.60
2017-09-07T12:31:14.534Z,35.60
2017-09-07T12:33:42.845Z,35.50
2017-09-07T12:36:11.225Z,36.90
2017-09-07T12:38:41.507Z,38.00
2017-09-07T12:41:10.055Z,38.30
2017-09-07T12:43:38.378Z,38.80
2017-09-07T12:46:06.961Z,38.40
2017-09-07T12:48:35.295Z,38.60
2017-09-07T12:51:03.737Z,38.60
2017-09-07T12:53:34.950Z,38.60
2017-09-07T12:56:04.839Z,38.30
2017-09-07T12:58:33.499Z,39.00
2017-09-07T13:01:01.880Z,37.50
2017-09-07T13:03:30.216Z,37.60
2017-09-07T13:05:58.604Z,35.00
2017-09-07T13:08:26.966Z,35.10
2017-09-07T13:10:56.913Z,35.90
2017-09-07T13:13:26.497Z,36.50
2017-09-07T13:15:55.953Z,36.10
2017-09-07T13:18:26.082Z,35.10
2017-09-07T13:20:54.610Z,36.00
2017-09-07T13:23:23.139Z,36.40
2017-09-07T13:25:51.577Z,36.30
2017-09-07T13:28:20.788Z,35.90
2017-09-07T13:30:50.221Z,37.90
2017-09-07T13:33:18.750Z,38.10
2017-09-07T13:35:47.232Z,38.70
2017-09-07T13:38:15.670Z,39.00
2017-09-07T13:40:44.038Z,38.70
2017-09-07T13:43:13.196Z,38.90
2017-09-07T13:45:41.544Z,39.10
2017-09-07T13:48:10.722Z,38.50
2017-09-07T13:50:39.087Z,39.10
2017-09-07T13:53:08.254Z,39.30
2017-09-07T13:55:37.215Z,39.20
2017-09-07T13:58:06.399Z,39.50
2017-09-07T14:00:35.850Z,39.30
2017-09-07T14:03:14.446Z,39.20
2017-09-07T14:05:44.979Z,37.60
2017-09-07T14:08:18.904Z,38.80
2017-09-07T14:10:59.388Z,37.50
2017-09-07T14:16:47.625Z,37.50
2017-09-07T14:19:16.012Z,36.60
2017-09-07T14:21:45.074Z,38.60
2017-09-07T14:24:14.173Z,37.50
2017-09-07T14:26:42.481Z,37.50
2017-09-07T14:29:10.781Z,37.60
2017-09-07T14:31:39.128Z,38.30
2017-09-07T14:34:07.441Z,37.60
2017-09-07T14:36:35.902Z,37.20
2017-09-07T14:39:04.236Z,36.90
2017-09-07T14:41:32.545Z,37.20
2017-09-07T14:44:00.950Z,35.70
2017-09-07T14:46:29.259Z,36.20
2017-09-07T14:48:57.561Z,37.30
2017-09-07T14:51:25.891Z,38.20
2017-09-07T14:53:54.206Z,38.70
2017-09-07T14:56:22.526Z,38.80
2017-09-07T14:58:50.846Z,38.90
2017-09-07T15:01:19.151Z,38.40
2017-09-07T15:03:47.549Z,38.80
2017-09-07T15:06:15.849Z,37.60
2017-09-07T15:08:44.198Z,38.20
2017-09-07T15:11:12.533Z,37.90
2017-09-07T15:13:41.077Z,37.00
2017-09-07T15:16:09.380Z,37.60
2017-09-07T15:18:37.681Z,37.30
2017-09-07T15:21:06.024Z,37.40
2017-09-07T15:23:34.331Z,36.70
2017-09-07T15:26:02.667Z,36.20
2017-09-07T15:28:30.983Z,35.50
2017-09-07T15:30:59.451Z,35.50
2017-09-07T15:33:27.734Z,36.60
2017-09-07T15:35:56.031Z,36.10
2017-09-07T15:38:24.392Z,37.60
2017-09-07T15:40:52.689Z,37.00
2017-09-07T15:43:21.017Z,38.20
2017-09-07T15:45:49.393Z,37.60
2017-09-07T15:48:18.010Z,37.90
2017-09-07T15:50:46.352Z,37.70
2017-09-07T15:53:14.644Z,37.30
2017-09-07T15:55:42.973Z,37.40
2017-09-07T15:58:11.310Z,37.10
2017-09-07T16:00:39.652Z,37.00
2017-09-07T16:03:07.981Z,37.30
2017-09-07T16:05:36.274Z,36.40
2017-09-07T16:08:04.717Z,37.10
2017-09-07T16:10:33.060Z,37.70
2017-09-07T16:13:01.365Z,36.70
2017-09-07T16:15:29.667Z,37.20
2017-09-07T16:17:58.009Z,37.20
2017-09-07T16:20:26.328Z,37.70
2017-09-07T16:22:54.773Z,37.00
2017-09-07T16:25:23.072Z,37.70
2017-09-07T16:27:51.365Z,37.20
2017-09-07T16:30:19.698Z,38.40
2017-09-07T16:32:48.001Z,38.20
2017-09-07T16:35:16.317Z,38.70
2017-09-07T16:37:44.757Z,39.00
2017-09-07T16:40:13.853Z,40.10
2017-09-07T16:42:42.242Z,39.70
2017-09-07T16:45:10.618Z,40.40
2017-09-07T16:47:38.908Z,39.70
2017-09-07T16:50:07.200Z,40.80
2017-09-07T16:52:35.523Z,41.50
2017-09-07T16:55:04.361Z,41.30
2017-09-07T16:57:32.689Z,41.70
2017-09-07T17:00:00.998Z,42.30
2017-09-07T17:02:29.397Z,42.00
2017-09-07T17:04:57.706Z,42.40
2017-09-07T17:07:26.010Z,42.80
2017-09-07T17:09:54.373Z,41.30
2017-09-07T17:12:22.705Z,42.40
2017-09-07T17:14:51.108Z,42.80
2017-09-07T17:17:19.442Z,43.40
2017-09-07T17:19:47.741Z,42.80
2017-09-07T17:22:16.047Z,43.10
2017-09-07T17:24:44.362Z,43.50
2017-09-07T17:27:12.670Z,44.00
2017-09-07T17:29:41.270Z,44.10
2017-09-07T17:32:09.605Z,44.70
2017-09-07T17:34:38.712Z,44.90
2017-09-07T17:37:07.093Z,44.80
2017-09-07T17:39:35.452Z,44.90
2017-09-07T17:42:03.781Z,44.40
2017-09-07T17:44:32.105Z,44.50
2017-09-07T17:47:00.409Z,44.90
2017-09-07T17:49:28.768Z,46.00
2017-09-07T17:51:57.133Z,45.50
2017-09-07T17:54:25.807Z,46.00
2017-09-07T17:56:54.100Z,46.50
2017-09-07T17:59:22.401Z,46.20
2017-09-07T18:01:50.754Z,46.50
2017-09-07T18:04:19.065Z,46.70
2017-09-07T18:06:47.390Z,47.00
2017-09-07T18:09:15.696Z,47.10
2017-09-07T18:11:44.035Z,46.80
2017-09-07T18:14:12.329Z,46.40
2017-09-07T18:16:40.630Z,47.20
2017-09-07T18:19:08.953Z,47.30
2017-09-07T18:21:37.298Z,47.20
2017-09-07T18:24:05.991Z,47.10
2017-09-07T18:26:34.309Z,47.30
2017-09-07T18:29:02.640Z,47.70
2017-09-07T18:31:31.733Z,48.20
2017-09-07T18:34:00.038Z,48.20
2017-09-07T18:36:28.348Z,48.40
2017-09-07T18:38:57.522Z,48.40
2017-09-07T18:41:25.828Z,48.50
2017-09-07T18:43:54.174Z,48.80
2017-09-07T18:46:22.555Z,49.10
2017-09-07T18:48:50.859Z,49.40
2017-09-07T18:51:19.173Z,49.70
2017-09-07T18:53:47.482Z,49.70
2017-09-07T18:56:16.573Z,50.20
2017-09-07T18:58:44.895Z,50.20
2017-09-07T19:01:13.346Z,50.70
2017-09-07T19:03:41.657Z,50.60
2017-09-07T19:06:09.973Z,50.70
2017-09-07T19:08:38.356Z,50.60
2017-09-07T19:11:06.698Z,51.00
2017-09-07T19:13:35.028Z,51.00
2017-09-07T19:16:03.581Z,50.80
2017-09-07T19:18:31.931Z,51.10
2017-09-07T19:21:00.274Z,51.10
2017-09-07T19:23:28.579Z,50.80
2017-09-07T19:25:57.544Z,51.10
2017-09-07T19:28:25.915Z,50.50
2017-09-07T19:30:55.313Z,50.20
2017-09-07T19:33:23.615Z,50.10
2017-09-07T19:35:51.978Z,50.30
2017-09-07T19:38:20.287Z,51.40
2017-09-07T19:40:48.598Z,50.50
2017-09-07T19:43:16.961Z,50.60
2017-09-07T19:45:45.280Z,50.40
2017-09-07T19:48:13.601Z,50.70
2017-09-07T19:50:41.974Z,51.00
2017-09-07T19:53:10.328Z,51.00
2017-09-07T19:55:38.649Z,51.00
2017-09-07T19:58:06.958Z,51.30
2017-09-07T20:00:35.315Z,51.10
2017-09-07T20:03:03.617Z,51.30
2017-09-07T20:05:31.961Z,51.60
2017-09-07T20:08:00.317Z,51.80
2017-09-07T20:10:28.629Z,51.90
2017-09-07T20:12:57.688Z,52.80
2017-09-07T20:15:26.497Z,52.00
2017-09-07T20:17:55.783Z,51.90
2017-09-07T20:20:24.858Z,53.10
2017-09-07T20:22:53.185Z,52.70
2017-09-07T20:25:21.497Z,52.70
2017-09-07T20:27:49.869Z,52.10
2017-09-07T20:30:18.184Z,53.10
2017-09-07T20:32:46.476Z,53.60
2017-09-07T20:35:14.811Z,53.80
2017-09-07T20:37:43.133Z,54.10
2017-09-07T20:40:11.429Z,54.30
2017-09-07T20:42:39.881Z,54.30
2017-09-07T20:45:09.031Z,54.10
2017-09-07T20:47:37.334Z,54.10
2017-09-07T20:50:05.743Z,53.90
2017-09-07T20:52:34.059Z,53.90
2017-09-07T20:55:02.378Z,54.70
2017-09-07T20:57:30.720Z,53.60
2017-09-07T20:59:59.042Z,53.60
2017-09-07T21:02:27.340Z,53.80
2017-09-07T21:04:55.671Z,53.90
2017-09-07T21:07:24.004Z,54.00
2017-09-07T21:09:52.326Z,54.10
2017-09-07T21:12:20.630Z,53.90
2017-09-07T21:14:48.943Z,54.00
2017-09-07T21:17:17.276Z,54.40
2017-09-07T21:19:45.629Z,54.60
2017-09-07T21:22:13.928Z,54.90
2017-09-07T21:24:42.250Z,54.70
2017-09-07T21:27:10.624Z,54.70
2017-09-07T21:29:39.009Z,55.00
2017-09-07T21:32:07.369Z,54.30
2017-09-07T21:34:36.013Z,54.40
2017-09-07T21:37:04.356Z,53.90
2017-09-07T21:39:32.680Z,53.80
2017-09-07T21:42:01.003Z,53.90
2017-09-07T21:44:29.325Z,54.00
2017-09-07T21:46:57.683Z,54.60
2017-09-07T21:49:26.017Z,54.80
2017-09-07T21:51:54.355Z,55.10
2017-09-07T21:54:22.662Z,55.20
2017-09-07T21:56:50.973Z,55.10
2017-09-07T21:59:19.345Z,55.10
2017-09-07T22:01:47.689Z,55.20
2017-09-07T22:04:15.983Z,55.40
2017-09-07T22:06:44.344Z,55.50
2017-09-07T22:09:12.637Z,55.70
2017-09-07T22:11:40.971Z,55.80
2017-09-07T22:14:09.458Z,55.90
2017-09-07T22:16:37.864Z,56.20
2017-09-07T22:19:06.362Z,56.20
2017-09-07T22:21:34.709Z,56.70
2017-09-07T22:24:03.008Z,56.70
2017-09-07T22:26:31.313Z,56.60
2017-09-07T22:28:59.690Z,56.60
2017-09-07T22:31:27.992Z,56.60
2017-09-07T22:33:56.294Z,56.80
2017-09-07T22:36:24.624Z,56.70
2017-09-07T22:38:52.925Z,57.10
2017-09-07T22:41:21.249Z,56.70
2017-09-07T22:43:49.576Z,56.70
2017-09-07T22:46:17.905Z,57.00
2017-09-07T22:48:46.224Z,57.30
2017-09-07T22:51:15.314Z,57.20
2017-09-07T22:53:43.621Z,56.80
2017-09-07T22:56:11.994Z,57.00
2017-09-07T22:58:40.329Z,57.20
2017-09-07T23:01:08.662Z,57.60
2017-09-07T23:03:37.001Z,57.60
2017-09-07T23:06:05.350Z,58.10
2017-09-07T23:08:33.883Z,58.40
2017-09-07T23:11:02.256Z,58.80
2017-09-07T23:13:30.583Z,58.70
2017-09-07T23:15:58.956Z,58.70
2017-09-07T23:18:27.253Z,59.10
2017-09-07T23:20:55.579Z,58.90
2017-09-07T23:23:23.938Z,58.50
2017-09-07T23:25:52.264Z,59.20
2017-09-07T23:28:21.051Z,58.80
2017-09-07T23:30:49.373Z,58.70
2017-09-07T23:33:17.702Z,58.70
2017-09-07T23:35:46.030Z,58.60
2017-09-07T23:38:14.341Z,58.50
2017-09-07T23:40:43.521Z,58.30
2017-09-07T23:43:12.763Z,58.70
2017-09-07T23:45:41.146Z,58.50
2017-09-07T23:48:09.446Z,58.70
2017-09-07T23:50:37.889Z,58.50
2017-09-07T23:53:06.349Z,58.00
2017-09-07T23:55:34.649Z,58.20
2017-09-07T23:58:03.046Z,57.80
